createdAt,value
2018-03-31T00:01:48.137Z,9.41
2018-03-31T00:04:15.206Z,9.48
2018-03-31T00:06:42.224Z,9.51
2018-03-31T00:09:09.280Z,9.53
2018-03-31T00:11:36.295Z,9.60
2018-03-31T00:14:03.360Z,9.59
2018-03-31T00:16:30.370Z,9.61
2018-03-31T00:18:57.429Z,9.67
2018-03-31T00:21:24.438Z,9.62
2018-03-31T00:23:51.483Z,9.57
2018-03-31T00:26:18.491Z,9.51
2018-03-31T00:28:45.550Z,9.39
2018-03-31T00:31:12.770Z,9.43
2018-03-31T00:33:39.732Z,9.43
2018-03-31T00:36:06.788Z,9.35
2018-03-31T00:38:33.802Z,9.25
2018-03-31T00:41:00.888Z,9.24
2018-03-31T00:43:27.895Z,9.33
2018-03-31T00:45:55.003Z,9.42
2018-03-31T00:48:22.025Z,9.47
2018-03-31T00:50:49.085Z,9.45
2018-03-31T00:53:16.096Z,9.44
2018-03-31T00:55:43.201Z,9.34
2018-03-31T00:58:10.225Z,9.28
2018-03-31T01:00:37.286Z,8.98
2018-03-31T01:03:04.298Z,8.77
2018-03-31T01:05:31.414Z,8.59
2018-03-31T01:07:58.427Z,8.39
2018-03-31T01:10:25.490Z,8.35
2018-03-31T01:12:52.499Z,8.35
2018-03-31T01:15:19.562Z,8.47
2018-03-31T01:17:46.592Z,8.59
2018-03-31T01:20:13.659Z,8.69
2018-03-31T01:22:40.649Z,8.80
2018-03-31T01:25:07.681Z,8.84
2018-03-31T01:27:34.872Z,8.89
2018-03-31T01:30:01.959Z,8.93
2018-03-31T01:32:29.020Z,8.98
2018-03-31T01:34:56.055Z,9.00
2018-03-31T01:37:23.120Z,8.99
2018-03-31T01:39:50.134Z,8.99
2018-03-31T01:42:17.178Z,8.97
2018-03-31T01:44:44.351Z,8.92
2018-03-31T01:47:11.396Z,8.86
2018-03-31T01:49:38.401Z,8.75
2018-03-31T01:52:05.454Z,8.70
2018-03-31T01:54:32.462Z,8.69
2018-03-31T01:56:59.503Z,8.69
2018-03-31T01:59:26.510Z,8.68
2018-03-31T02:01:53.568Z,8.70
2018-03-31T02:04:20.577Z,8.67
2018-03-31T02:06:47.640Z,8.68
2018-03-31T02:09:14.685Z,8.66
2018-03-31T02:11:41.738Z,8.59
2018-03-31T02:14:08.759Z,8.55
2018-03-31T02:16:35.798Z,8.51
2018-03-31T02:19:02.811Z,8.42
2018-03-31T02:21:29.856Z,8.36
2018-03-31T02:23:56.878Z,8.35
2018-03-31T02:26:23.874Z,8.32
2018-03-31T02:28:50.935Z,8.37
2018-03-31T02:31:17.948Z,8.41
2018-03-31T02:33:44.999Z,8.29
2018-03-31T02:36:12.024Z,8.27
2018-03-31T02:38:39.072Z,8.16
2018-03-31T02:41:06.097Z,8.12
2018-03-31T02:43:33.411Z,8.13
2018-03-31T02:46:00.424Z,8.14
2018-03-31T02:48:27.465Z,8.17
2018-03-31T02:50:54.466Z,8.07
2018-03-31T02:53:21.535Z,7.74
2018-03-31T02:55:48.540Z,7.38
2018-03-31T02:58:15.584Z,7.28
2018-03-31T03:00:42.600Z,7.30
2018-03-31T03:03:09.695Z,7.12
2018-03-31T03:05:36.678Z,6.97
2018-03-31T03:08:03.728Z,6.89
2018-03-31T03:10:30.741Z,6.87
2018-03-31T03:12:57.778Z,6.74
2018-03-31T03:15:24.811Z,6.63
2018-03-31T03:17:51.868Z,6.58
2018-03-31T03:20:18.918Z,6.49
2018-03-31T03:22:45.946Z,6.40
2018-03-31T03:25:12.995Z,6.37
2018-03-31T03:27:40.006Z,6.35
2018-03-31T03:30:07.077Z,6.22
2018-03-31T03:32:34.086Z,6.24
2018-03-31T03:35:01.235Z,6.18
2018-03-31T03:37:28.242Z,6.27
2018-03-31T03:39:55.297Z,6.37
2018-03-31T03:42:22.302Z,6.44
2018-03-31T03:44:49.402Z,6.40
2018-03-31T03:47:16.418Z,6.48
2018-03-31T03:49:43.467Z,6.67
2018-03-31T03:52:10.473Z,6.82
2018-03-31T03:54:37.531Z,6.92
2018-03-31T03:57:04.535Z,6.96
2018-03-31T03:59:31.602Z,7.11
2018-03-31T04:01:58.601Z,7.16
2018-03-31T04:04:25.638Z,7.18
2018-03-31T04:06:52.651Z,7.15
2018-03-31T04:09:19.702Z,7.18
2018-03-31T04:11:46.747Z,7.14
2018-03-31T04:14:13.766Z,6.94
2018-03-31T04:16:40.829Z,6.86
2018-03-31T04:19:07.843Z,6.86
2018-03-31T04:21:34.882Z,6.91
2018-03-31T04:24:01.898Z,6.89
2018-03-31T04:26:29.074Z,6.83
2018-03-31T04:28:56.137Z,6.54
2018-03-31T04:31:23.230Z,6.18
2018-03-31T04:33:50.249Z,5.96
2018-03-31T04:36:17.317Z,5.83
2018-03-31T04:38:44.326Z,5.80
2018-03-31T04:41:11.458Z,5.78
2018-03-31T04:43:38.468Z,5.77
2018-03-31T04:46:05.545Z,5.72
2018-03-31T04:48:32.627Z,5.75
2018-03-31T04:50:59.685Z,5.92
2018-03-31T04:53:26.754Z,6.06
2018-03-31T04:55:53.835Z,6.11
2018-03-31T04:58:20.835Z,6.24
2018-03-31T05:00:47.883Z,6.32
2018-03-31T05:03:14.966Z,6.20
2018-03-31T05:05:42.010Z,5.97
2018-03-31T05:08:09.038Z,5.88
2018-03-31T05:10:36.048Z,5.99
2018-03-31T05:13:03.117Z,6.14
2018-03-31T05:15:30.179Z,6.24
2018-03-31T05:17:57.267Z,6.37
2018-03-31T05:20:24.237Z,6.43
2018-03-31T05:22:51.454Z,6.27
2018-03-31T05:25:18.469Z,6.03
2018-03-31T05:27:45.519Z,5.87
2018-03-31T05:30:12.532Z,5.74
2018-03-31T05:32:39.704Z,5.68
2018-03-31T05:35:06.774Z,5.63
2018-03-31T05:37:33.843Z,5.59
2018-03-31T05:40:00.851Z,5.53
2018-03-31T05:42:27.906Z,5.47
2018-03-31T05:44:54.934Z,5.44
2018-03-31T05:47:22.010Z,5.42
2018-03-31T05:49:49.156Z,5.37
2018-03-31T05:52:16.201Z,5.42
2018-03-31T05:54:43.219Z,5.44
2018-03-31T05:57:10.278Z,5.65
2018-03-31T05:59:37.290Z,5.88
2018-03-31T06:02:04.471Z,5.98
2018-03-31T06:04:31.481Z,5.96
2018-03-31T06:06:58.514Z,5.82
2018-03-31T06:09:25.591Z,5.69
2018-03-31T06:11:52.621Z,5.61
2018-03-31T06:14:19.711Z,5.52
2018-03-31T06:16:46.720Z,5.52
2018-03-31T06:19:13.775Z,5.72
2018-03-31T06:21:40.905Z,5.76
2018-03-31T06:24:07.989Z,5.81
2018-03-31T06:26:35.007Z,5.81
2018-03-31T06:29:02.079Z,5.83
2018-03-31T06:31:29.124Z,5.91
2018-03-31T06:33:56.174Z,5.99
2018-03-31T06:36:23.191Z,6.04
2018-03-31T06:38:50.250Z,6.18
2018-03-31T06:41:17.258Z,6.38
2018-03-31T06:43:44.464Z,6.55
2018-03-31T06:46:11.830Z,6.64
2018-03-31T06:48:38.882Z,6.75
2018-03-31T06:51:05.886Z,6.82
2018-03-31T06:53:32.960Z,6.89
2018-03-31T06:55:59.978Z,6.95
2018-03-31T06:58:27.159Z,7.01
2018-03-31T07:00:54.211Z,7.13
2018-03-31T07:03:21.218Z,7.02
2018-03-31T07:05:48.270Z,6.95
2018-03-31T07:08:15.300Z,7.04
2018-03-31T07:10:42.350Z,7.15
2018-03-31T07:13:09.421Z,7.11
2018-03-31T07:15:36.473Z,7.14
2018-03-31T07:18:03.488Z,7.19
2018-03-31T07:20:30.599Z,7.23
2018-03-31T07:22:57.618Z,7.26
2018-03-31T07:25:24.674Z,7.36
2018-03-31T07:27:51.679Z,7.43
2018-03-31T07:30:18.739Z,7.46
2018-03-31T07:32:45.751Z,7.54
2018-03-31T07:35:12.802Z,7.56
2018-03-31T07:37:39.827Z,7.64
2018-03-31T07:40:06.887Z,7.70
2018-03-31T07:42:33.978Z,7.77
2018-03-31T07:45:01.062Z,7.87
2018-03-31T07:47:28.087Z,7.87
2018-03-31T07:49:55.107Z,7.88
2018-03-31T07:52:22.154Z,7.88
2018-03-31T07:54:49.243Z,7.95
2018-03-31T07:59:49.606Z,8.05
2018-03-31T08:02:16.683Z,8.07
2018-03-31T08:04:43.699Z,8.14
2018-03-31T08:07:10.828Z,8.16
2018-03-31T08:09:37.879Z,8.23
2018-03-31T08:12:05.015Z,8.28
2018-03-31T08:14:32.020Z,8.31
2018-03-31T08:16:59.086Z,8.32
2018-03-31T08:19:26.110Z,8.42
2018-03-31T08:21:53.150Z,8.48
2018-03-31T08:24:20.159Z,8.56
2018-03-31T08:26:47.213Z,8.62
2018-03-31T08:29:14.241Z,8.62
2018-03-31T08:31:41.339Z,8.67
2018-03-31T08:34:08.361Z,8.74
2018-03-31T08:36:35.420Z,8.78
2018-03-31T08:39:02.450Z,8.84
2018-03-31T08:41:29.625Z,8.93
2018-03-31T08:43:56.635Z,9.00
2018-03-31T08:46:23.659Z,9.13
2018-03-31T08:48:50.715Z,9.22
2018-03-31T08:51:17.730Z,9.25
2018-03-31T08:53:44.787Z,9.31
2018-03-31T08:56:11.798Z,9.35
2018-03-31T08:58:38.857Z,9.45
2018-03-31T09:01:05.869Z,9.53
2018-03-31T09:03:32.969Z,9.61
2018-03-31T09:05:59.977Z,9.74
2018-03-31T09:08:27.032Z,9.88
2018-03-31T09:10:54.046Z,9.91
2018-03-31T09:13:21.253Z,9.96
2018-03-31T09:15:48.299Z,10.01
2018-03-31T09:18:15.338Z,10.08
2018-03-31T09:20:42.371Z,10.15
2018-03-31T09:23:09.439Z,10.22
2018-03-31T09:25:36.510Z,10.33
2018-03-31T09:28:03.530Z,10.46
2018-03-31T09:30:30.540Z,10.52
2018-03-31T09:32:57.654Z,10.54
2018-03-31T09:35:24.615Z,10.49
2018-03-31T09:37:51.640Z,10.54
2018-03-31T09:40:18.707Z,10.64
2018-03-31T09:42:45.718Z,10.75
2018-03-31T09:45:12.857Z,10.89
2018-03-31T09:47:39.910Z,10.96
2018-03-31T09:50:07.019Z,11.09
2018-03-31T09:52:34.051Z,11.17
2018-03-31T09:55:01.119Z,11.28
2018-03-31T09:57:28.142Z,11.39
2018-03-31T09:59:55.341Z,11.43
2018-03-31T10:02:22.332Z,11.52
2018-03-31T10:04:49.394Z,11.67
2018-03-31T10:07:16.415Z,11.79
2018-03-31T10:09:43.589Z,11.87
2018-03-31T10:12:10.619Z,11.90
2018-03-31T10:14:37.681Z,12.03
2018-03-31T10:17:04.771Z,12.20
2018-03-31T10:19:31.878Z,12.22
2018-03-31T10:21:58.973Z,12.25
2018-03-31T10:24:26.080Z,12.41
2018-03-31T10:26:53.211Z,12.51
2018-03-31T10:29:20.290Z,12.70
2018-03-31T10:31:47.327Z,12.86
2018-03-31T10:34:14.352Z,13.04
2018-03-31T10:36:41.443Z,13.31
2018-03-31T10:39:08.482Z,13.49
2018-03-31T10:41:35.540Z,13.78
2018-03-31T10:44:02.587Z,13.97
2018-03-31T10:46:29.848Z,13.79
2018-03-31T10:48:56.927Z,13.92
2018-03-31T10:51:23.984Z,14.11
2018-03-31T10:53:50.994Z,14.13
2018-03-31T10:56:18.096Z,14.27
2018-03-31T10:58:45.138Z,14.48
2018-03-31T11:01:12.198Z,14.65
2018-03-31T11:03:39.319Z,14.66
2018-03-31T11:06:06.379Z,14.89
2018-03-31T11:08:33.419Z,15.01
2018-03-31T11:11:00.915Z,15.22
2018-03-31T11:13:27.966Z,15.11
2018-03-31T11:15:55.157Z,15.17
2018-03-31T11:18:22.179Z,15.29
2018-03-31T11:20:49.228Z,15.36
2018-03-31T11:23:16.265Z,15.45
2018-03-31T11:25:43.326Z,15.76
2018-03-31T11:28:10.343Z,15.94
2018-03-31T11:30:37.464Z,15.91
2018-03-31T11:33:04.580Z,15.55
2018-03-31T11:35:31.604Z,15.76
2018-03-31T11:37:58.678Z,16.16
2018-03-31T11:40:25.749Z,16.18
2018-03-31T11:42:52.807Z,16.20
2018-03-31T11:45:19.884Z,16.31
2018-03-31T11:47:46.972Z,15.65
2018-03-31T11:50:14.004Z,15.42
2018-03-31T11:52:41.203Z,15.38
2018-03-31T11:55:08.216Z,15.70
2018-03-31T11:57:35.432Z,16.25
2018-03-31T12:00:02.468Z,16.49
2018-03-31T12:02:29.552Z,16.81
2018-03-31T12:04:56.559Z,16.93
2018-03-31T12:07:23.651Z,16.86
2018-03-31T12:09:50.666Z,16.53
2018-03-31T12:12:17.780Z,16.53
2018-03-31T12:14:44.798Z,16.68
2018-03-31T12:17:11.884Z,16.98
2018-03-31T12:19:38.934Z,16.95
2018-03-31T12:22:06.069Z,16.55
2018-03-31T12:24:33.131Z,16.20
2018-03-31T12:27:00.163Z,15.80
2018-03-31T12:29:27.316Z,15.58
2018-03-31T12:31:54.334Z,15.42
2018-03-31T12:34:21.412Z,15.10
2018-03-31T12:36:48.455Z,14.91
2018-03-31T12:39:15.595Z,14.69
2018-03-31T12:41:42.654Z,14.68
2018-03-31T12:44:09.705Z,14.73
2018-03-31T12:46:36.720Z,14.75
2018-03-31T12:49:03.782Z,14.82
2018-03-31T12:51:30.826Z,14.78
2018-03-31T12:53:57.886Z,14.67
2018-03-31T12:56:24.938Z,14.56
2018-03-31T12:58:52.085Z,14.46
2018-03-31T13:01:19.134Z,14.50
2018-03-31T13:03:46.193Z,14.51
2018-03-31T13:06:13.227Z,14.43
2018-03-31T13:08:40.288Z,14.45
2018-03-31T13:11:07.305Z,14.54
2018-03-31T13:13:34.340Z,14.70
2018-03-31T13:16:01.367Z,15.02
2018-03-31T13:18:28.407Z,15.12
2018-03-31T13:20:55.447Z,15.08
2018-03-31T13:23:22.426Z,15.24
2018-03-31T13:25:49.503Z,16.04
2018-03-31T13:28:16.528Z,16.92
2018-03-31T13:30:43.598Z,17.33
2018-03-31T13:33:10.609Z,17.79
2018-03-31T13:35:37.766Z,18.23
2018-03-31T13:38:04.796Z,18.77
2018-03-31T13:40:31.859Z,18.66
2018-03-31T13:42:58.874Z,18.34
2018-03-31T13:45:25.977Z,18.58
2018-03-31T13:47:53.114Z,18.48
2018-03-31T13:50:20.193Z,17.85
2018-03-31T13:52:47.262Z,17.58
2018-03-31T13:55:14.326Z,17.72
2018-03-31T13:57:41.371Z,17.98
2018-03-31T14:00:08.438Z,17.90
2018-03-31T14:02:35.576Z,17.40
2018-03-31T14:05:02.677Z,17.00
2018-03-31T14:07:29.695Z,17.08
2018-03-31T14:09:56.781Z,16.66
2018-03-31T14:12:23.797Z,16.26
2018-03-31T14:14:51.013Z,15.90
2018-03-31T14:17:18.170Z,15.73
2018-03-31T14:19:45.339Z,16.22
2018-03-31T14:22:12.448Z,16.53
2018-03-31T14:24:39.472Z,16.54
2018-03-31T14:27:06.566Z,17.39
2018-03-31T14:29:33.603Z,17.67
2018-03-31T14:32:00.734Z,17.62
2018-03-31T14:34:27.745Z,17.57
2018-03-31T14:36:54.816Z,17.45
2018-03-31T14:39:21.856Z,17.38
2018-03-31T14:41:48.918Z,17.15
2018-03-31T14:44:15.952Z,16.88
2018-03-31T14:46:43.016Z,16.89
2018-03-31T14:49:10.054Z,17.03
2018-03-31T14:51:37.250Z,17.29
2018-03-31T14:54:04.311Z,17.71
2018-03-31T14:56:31.364Z,17.85
2018-03-31T14:58:58.422Z,17.78
2018-03-31T15:01:25.518Z,17.25
2018-03-31T15:03:52.533Z,16.62
2018-03-31T15:06:19.696Z,16.39
2018-03-31T15:08:46.746Z,16.89
2018-03-31T15:11:13.821Z,16.91
2018-03-31T15:13:40.909Z,16.79
2018-03-31T15:16:07.917Z,16.44
2018-03-31T15:18:34.960Z,16.19
2018-03-31T15:21:01.978Z,15.94
2018-03-31T15:23:29.090Z,16.10
2018-03-31T15:25:56.118Z,16.57
2018-03-31T15:28:23.173Z,16.73
2018-03-31T15:30:50.212Z,16.96
2018-03-31T15:33:17.299Z,17.05
2018-03-31T15:35:44.330Z,17.14
2018-03-31T15:38:11.579Z,16.90
2018-03-31T15:40:38.596Z,16.96
2018-03-31T15:43:05.653Z,17.00
2018-03-31T15:45:34.428Z,16.73
2018-03-31T15:48:01.632Z,16.21
2018-03-31T15:50:28.686Z,15.83
2018-03-31T15:52:55.759Z,15.99
2018-03-31T15:55:22.791Z,16.04
2018-03-31T15:57:49.851Z,16.44
2018-03-31T16:00:16.893Z,17.01
2018-03-31T16:02:43.939Z,17.61
2018-03-31T16:05:11.015Z,17.91
2018-03-31T16:07:38.041Z,17.70
2018-03-31T16:10:05.124Z,17.38
2018-03-31T16:12:32.151Z,16.96
2018-03-31T16:14:59.212Z,16.86
2018-03-31T16:17:26.232Z,16.55
2018-03-31T16:19:53.311Z,16.41
2018-03-31T16:22:20.329Z,16.22
2018-03-31T16:24:47.374Z,16.12
2018-03-31T16:27:14.381Z,16.03
2018-03-31T16:29:41.465Z,15.98
2018-03-31T16:32:08.486Z,15.85
2018-03-31T16:34:35.532Z,15.71
2018-03-31T16:37:02.547Z,15.54
2018-03-31T16:39:29.614Z,15.44
2018-03-31T16:41:56.635Z,15.27
2018-03-31T16:44:23.774Z,15.20
2018-03-31T16:46:50.839Z,15.35
2018-03-31T16:49:17.956Z,15.68
2018-03-31T16:51:44.937Z,15.86
2018-03-31T16:54:12.071Z,15.87
2018-03-31T16:56:39.131Z,15.76
2018-03-31T16:59:06.164Z,15.79
2018-03-31T17:01:33.249Z,15.62
2018-03-31T17:04:00.294Z,15.40
2018-03-31T17:06:27.540Z,15.27
2018-03-31T17:08:54.580Z,15.04
2018-03-31T17:11:21.648Z,14.89
2018-03-31T17:13:48.667Z,14.87
2018-03-31T17:16:15.766Z,14.93
2018-03-31T17:18:42.805Z,14.87
2018-03-31T17:21:09.896Z,14.85
2018-03-31T17:23:36.989Z,14.86
2018-03-31T17:26:04.059Z,14.84
2018-03-31T17:28:31.118Z,14.72
2018-03-31T17:30:58.180Z,14.70
2018-03-31T17:33:25.190Z,14.67
2018-03-31T17:35:52.351Z,14.65
2018-03-31T17:38:19.387Z,14.60
2018-03-31T17:40:46.459Z,14.49
2018-03-31T17:43:13.496Z,14.44
2018-03-31T17:45:40.539Z,14.44
2018-03-31T17:48:07.560Z,14.43
2018-03-31T17:53:01.255Z,14.40
2018-03-31T17:55:28.298Z,14.40
2018-03-31T17:57:55.347Z,14.41
2018-03-31T18:00:22.376Z,14.39
2018-03-31T18:02:49.458Z,14.42
2018-03-31T18:05:16.531Z,14.37
2018-03-31T18:07:43.599Z,14.31
2018-03-31T18:10:10.609Z,14.31
2018-03-31T18:12:37.746Z,14.31
2018-03-31T18:15:04.754Z,14.32
2018-03-31T18:17:31.813Z,14.31
2018-03-31T18:19:58.854Z,14.31
2018-03-31T18:22:26.945Z,14.33
2018-03-31T18:24:53.970Z,14.30
2018-03-31T18:27:21.045Z,14.24
2018-03-31T18:29:48.055Z,14.19
2018-03-31T18:32:15.131Z,14.20
2018-03-31T18:34:42.155Z,14.20
2018-03-31T18:37:09.216Z,14.19
2018-03-31T18:39:36.239Z,14.17
2018-03-31T18:42:03.310Z,14.16
2018-03-31T18:44:30.337Z,14.15
2018-03-31T18:46:57.402Z,14.14
2018-03-31T18:49:24.425Z,14.14
2018-03-31T18:51:51.457Z,14.14
2018-03-31T18:54:18.519Z,14.15
2018-03-31T18:56:45.540Z,14.12
2018-03-31T18:59:12.620Z,14.03
2018-03-31T19:01:39.652Z,13.99
2018-03-31T19:04:06.702Z,13.97
2018-03-31T19:06:33.763Z,13.97
2018-03-31T19:09:00.835Z,13.94
2018-03-31T19:11:27.871Z,13.94
2018-03-31T19:13:55.129Z,13.92
2018-03-31T19:16:27.734Z,13.83
2018-03-31T19:18:54.856Z,13.70
2018-03-31T19:21:21.874Z,13.58
2018-03-31T19:23:48.935Z,13.36
2018-03-31T19:26:15.979Z,13.32
2018-03-31T19:28:43.055Z,13.15
2018-03-31T19:31:10.074Z,12.91
2018-03-31T19:33:37.130Z,12.55
2018-03-31T19:36:09.701Z,12.35
2018-03-31T19:38:36.750Z,12.27
2018-03-31T19:41:03.797Z,12.03
2018-03-31T19:43:30.864Z,11.79
2018-03-31T19:45:57.888Z,11.69
2018-03-31T19:48:25.033Z,11.58
2018-03-31T19:50:52.041Z,11.57
2018-03-31T19:53:19.077Z,11.38
2018-03-31T19:55:46.134Z,11.12
2018-03-31T19:58:13.156Z,11.13
2018-03-31T20:00:40.211Z,11.05
2018-03-31T20:03:07.266Z,10.99
2018-03-31T20:05:34.329Z,10.94
2018-03-31T20:08:01.357Z,10.80
2018-03-31T20:10:28.404Z,10.80
2018-03-31T20:12:55.432Z,10.69
2018-03-31T20:15:22.502Z,10.65
2018-03-31T20:17:49.650Z,10.66
2018-03-31T20:20:16.699Z,10.64
2018-03-31T20:22:43.752Z,10.55
2018-03-31T20:25:10.852Z,10.51
2018-03-31T20:27:37.885Z,10.64
2018-03-31T20:30:04.970Z,10.56
2018-03-31T20:32:32.002Z,10.63
2018-03-31T20:34:59.066Z,10.64
2018-03-31T20:37:26.096Z,10.69
2018-03-31T20:39:53.243Z,10.53
2018-03-31T20:42:20.311Z,10.49
2018-03-31T20:44:47.337Z,10.35
2018-03-31T20:47:14.383Z,10.29
2018-03-31T20:49:41.425Z,10.40
2018-03-31T20:52:08.476Z,10.45
2018-03-31T20:54:35.535Z,10.59
2018-03-31T20:57:02.674Z,10.69
2018-03-31T20:59:29.683Z,10.75
2018-03-31T21:01:56.735Z,10.84
2018-03-31T21:04:23.787Z,10.94
2018-03-31T21:06:50.854Z,11.02
2018-03-31T21:09:17.871Z,11.08
2018-03-31T21:11:44.929Z,11.15
2018-03-31T21:14:11.966Z,11.15
2018-03-31T21:16:39.027Z,11.02
2018-03-31T21:19:06.092Z,10.93
2018-03-31T21:21:33.167Z,10.69
2018-03-31T21:24:00.184Z,10.49
2018-03-31T21:26:27.429Z,10.44
2018-03-31T21:28:54.506Z,10.29
2018-03-31T21:31:21.595Z,10.11
2018-03-31T21:33:48.594Z,9.96
2018-03-31T21:36:15.688Z,9.93
2018-03-31T21:38:42.771Z,9.89
2018-03-31T21:41:09.791Z,9.97
2018-03-31T21:43:36.865Z,10.00
2018-03-31T21:46:03.875Z,10.04
2018-03-31T21:48:30.919Z,10.11
2018-03-31T21:50:57.970Z,10.16
2018-03-31T21:53:25.050Z,10.08
2018-03-31T21:55:52.090Z,10.04
2018-03-31T21:58:19.138Z,10.00
2018-03-31T22:00:46.170Z,9.82
2018-03-31T22:03:13.214Z,9.82
2018-03-31T22:05:40.240Z,9.81
2018-03-31T22:08:07.299Z,9.86
2018-03-31T22:10:34.311Z,9.93
2018-03-31T22:13:06.908Z,9.93
2018-03-31T22:15:39.573Z,9.92
2018-03-31T22:18:06.728Z,9.97
2018-03-31T22:20:33.777Z,10.12
2018-03-31T22:23:00.828Z,10.05
2018-03-31T22:25:27.875Z,10.01
2018-03-31T22:27:54.943Z,9.99
2018-03-31T22:30:22.162Z,9.95
2018-03-31T22:32:49.187Z,9.94
2018-03-31T22:35:16.247Z,10.00
2018-03-31T22:37:43.270Z,10.06
2018-03-31T22:40:10.332Z,9.94
2018-03-31T22:42:37.362Z,10.01
2018-03-31T22:45:04.424Z,10.12
2018-03-31T22:47:31.426Z,10.23
2018-03-31T22:49:58.491Z,10.20
2018-03-31T22:52:25.502Z,9.98
2018-03-31T22:54:52.542Z,9.92
2018-03-31T22:57:19.565Z,9.76
2018-03-31T22:59:46.619Z,9.78
2018-03-31T23:02:13.642Z,9.75
2018-03-31T23:04:40.776Z,9.72
2018-03-31T23:07:07.796Z,9.75
2018-03-31T23:09:34.858Z,9.79
2018-03-31T23:12:01.923Z,9.87
2018-03-31T23:14:28.966Z,9.85
2018-03-31T23:16:55.986Z,9.86
2018-03-31T23:19:23.068Z,9.83
2018-03-31T23:21:50.200Z,9.85
2018-03-31T23:24:17.378Z,9.88
2018-03-31T23:26:44.497Z,9.91
2018-03-31T23:29:11.530Z,9.69
2018-03-31T23:31:38.572Z,9.69
2018-03-31T23:34:05.599Z,9.69
2018-03-31T23:36:32.646Z,9.49
2018-03-31T23:38:59.671Z,9.40
2018-03-31T23:41:26.737Z,9.18
2018-03-31T23:43:53.747Z,9.07
2018-03-31T23:46:20.815Z,9.10
2018-03-31T23:48:47.814Z,8.99
2018-03-31T23:51:14.874Z,9.03
2018-03-31T23:53:41.897Z,9.14
2018-03-31T23:56:08.979Z,9.28
2018-03-31T23:58:35.994Z,9.35
